Time;durP1;ratioP1;P1;durP2;ratioP2;P2;SDS_P1;SDS_P2;PMS_P1;PMS_P2;Temp;Humidity;BMP_temperature;BMP_pressure;BME280_temperature;BME280_humidity;BME280_pressure;Samples;Min_cycle;Max_cycle;Signal;HPM_P1;HPM_P2
2023/03/02 00:01:56;;;;;;;6.05;2.78;;;18.80;51.20;;;;;;6267963;28;20573;-75
2023/03/02 00:04:57;;;;;;;4.55;2.60;;;18.80;51.20;;;;;;6267505;28;20033;-74
2023/03/02 00:07:59;;;;;;;4.40;2.80;;;18.80;51.20;;;;;;6266669;28;20401;-74
2023/03/02 00:11:00;;;;;;;5.30;2.63;;;18.80;51.40;;;;;;6266660;28;20036;-75
2023/03/02 00:14:00;;;;;;;3.28;2.30;;;18.80;51.20;;;;;;6267949;28;20052;-75
2023/03/02 00:17:01;;;;;;;3.92;2.40;;;18.70;51.10;;;;;;6266428;28;20397;-75
2023/03/02 00:20:09;;;;;;;3.00;2.22;;;18.80;51.20;;;;;;6266397;28;20021;-74
2023/03/02 00:23:10;;;;;;;4.38;2.45;;;18.80;51.20;;;;;;6266392;28;20063;-75
2023/03/02 00:26:10;;;;;;;4.22;2.65;;;18.70;51.20;;;;;;6266368;28;20068;-75
2023/03/02 00:29:11;;;;;;;4.15;2.50;;;18.80;51.20;;;;;;6268087;28;20021;-75
2023/03/02 00:32:16;;;;;;;3.78;2.70;;;18.70;51.20;;;;;;6266421;28;20028;-74
2023/03/02 00:35:17;;;;;;;4.78;3.28;;;18.70;51.20;;;;;;6269981;28;20132;-75
2023/03/02 00:38:18;;;;;;;4.65;2.70;;;18.70;51.90;;;;;;6271164;28;20025;-74
2023/03/02 00:41:20;;;;;;;4.07;2.60;;;18.80;51.20;;;;;;6270774;28;20116;-74
2023/03/02 00:44:21;;;;;;;4.30;2.38;;;18.80;51.20;;;;;;6270819;28;20082;-74
2023/03/02 00:47:21;;;;;;;4.30;2.45;;;18.70;51.20;;;;;;6270998;28;20025;-75
2023/03/02 00:50:22;;;;;;;3.60;2.50;;;18.80;51.20;;;;;;6272067;28;20033;-74
2023/03/02 00:53:23;;;;;;;3.88;2.65;;;18.70;51.20;;;;;;6271824;28;20553;-74
2023/03/02 00:56:23;;;;;;;3.58;2.70;;;18.80;51.30;;;;;;6271485;28;20033;-74
2023/03/02 00:59:27;;;;;;;4.10;2.78;;;18.80;51.20;;;;;;6270530;28;20406;-74
2023/03/02 01:02:27;;;;;;;5.32;2.85;;;18.80;51.20;;;;;;6271951;28;20048;-75
2023/03/02 01:05:28;;;;;;;5.30;2.75;;;18.70;51.20;;;;;;6271629;28;20031;-75
2023/03/02 01:08:29;;;;;;;4.45;2.72;;;18.80;51.20;;;;;;6270566;28;20055;-74
2023/03/02 01:11:29;;;;;;;5.15;2.90;;;18.80;51.20;;;;;;6271637;28;20071;-74
2023/03/02 01:14:30;;;;;;;4.53;2.90;;;18.80;51.20;;;;;;6270065;28;20029;-75
2023/03/02 01:17:31;;;;;;;3.70;2.40;;;18.80;51.20;;;;;;6270121;28;20025;-73
2023/03/02 01:20:32;;;;;;;4.07;2.70;;;18.70;51.20;;;;;;6271378;28;20025;-75
2023/03/02 01:23:33;;;;;;;4.28;2.30;;;18.80;51.30;;;;;;6269973;28;20028;-74
2023/03/02 01:26:34;;;;;;;4.25;2.58;;;18.70;51.20;;;;;;6271106;28;20546;-74
2023/03/02 01:29:34;;;;;;;4.30;2.85;;;18.70;51.20;;;;;;6269762;28;20050;-74
2023/03/02 01:32:35;;;;;;;3.33;2.50;;;18.80;51.30;;;;;;6271083;28;20107;-74
2023/03/02 01:35:36;;;;;;;3.47;2.20;;;18.70;51.60;;;;;;6271050;28;20406;-75
2023/03/02 01:38:36;;;;;;;4.07;2.42;;;18.80;51.30;;;;;;6269882;28;20021;-75
2023/03/02 01:41:37;;;;;;;3.88;2.20;;;18.70;51.20;;;;;;6270801;28;20544;-74
2023/03/02 01:44:42;;;;;;;3.65;2.55;;;18.70;51.20;;;;;;6270187;28;20033;-75
2023/03/02 01:47:42;;;;;;;3.42;2.45;;;18.80;51.30;;;;;;6269460;28;20025;-74
2023/03/02 01:50:44;;;;;;;4.28;2.40;;;18.80;51.30;;;;;;6269500;28;20497;-75
2023/03/02 01:53:46;;;;;;;2.72;2.00;;;18.70;51.20;;;;;;6269434;28;20032;-75
2023/03/02 01:56:52;;;;;;;3.35;2.20;;;18.70;51.20;;;;;;6270516;28;20421;-74
2023/03/02 01:59:58;;;;;;;3.35;2.25;;;18.70;51.20;;;;;;6270664;28;20029;-75
2023/03/02 02:03:09;;;;;;;3.63;2.42;;;18.80;51.30;;;;;;6268758;28;20045;-74
2023/03/02 02:06:33;;;;;;;3.90;2.38;;;18.80;51.30;;;;;;6268960;28;20067;-74
2023/03/02 02:09:40;;;;;;;3.45;2.38;;;18.70;51.90;;;;;;6270409;28;20031;-75
2023/03/02 02:12:41;;;;;;;3.42;2.20;;;18.70;51.20;;;;;;6268952;28;20033;-75
2023/03/02 02:15:41;;;;;;;2.75;1.90;;;18.70;51.20;;;;;;6269675;28;20025;-75
2023/03/02 02:18:43;;;;;;;3.58;2.30;;;18.70;51.20;;;;;;6269944;28;20033;-74
2023/03/02 02:21:44;;;;;;;3.65;2.30;;;18.70;51.20;;;;;;6269812;28;20026;-74
2023/03/02 02:24:57;;;;;;;3.45;2.30;;;18.70;51.30;;;;;;6269120;28;20029;-74
2023/03/02 02:27:59;;;;;;;2.75;1.92;;;18.70;51.20;;;;;;6243811;28;20589;-75
2023/03/02 02:31:25;;;;;;;3.95;2.10;;;18.70;51.20;;;;;;6244044;28;20047;-74
2023/03/02 02:34:50;;;;;;;2.88;2.17;;;18.70;51.30;;;;;;6243202;28;20065;-74
2023/03/02 02:38:02;;;;;;;3.70;2.30;;;18.70;51.20;;;;;;6260890;28;20021;-74
2023/03/02 02:41:06;;;;;;;2.72;1.88;;;18.70;51.20;;;;;;6268211;28;20032;-74
2023/03/02 02:44:13;;;;;;;2.83;1.95;;;18.70;51.20;;;;;;6268135;28;20053;-75
2023/03/02 02:47:19;;;;;;;2.58;1.95;;;18.70;51.20;;;;;;6267958;28;20017;-74
2023/03/02 02:50:31;;;;;;;2.92;1.98;;;18.70;51.20;;;;;;6269346;28;20029;-74
2023/03/02 02:53:48;;;;;;;2.50;1.90;;;18.70;51.30;;;;;;6267563;28;20496;-75
2023/03/02 02:56:51;;;;;;;3.80;1.80;;;18.70;51.30;;;;;;6266951;28;20116;-75
2023/03/02 02:59:56;;;;;;;3.28;2.17;;;18.70;51.30;;;;;;6267901;28;20028;-74
2023/03/02 03:03:05;;;;;;;4.47;2.45;;;18.70;51.30;;;;;;6267326;28;20025;-75
2023/03/02 03:06:11;;;;;;;3.25;1.90;;;18.70;51.20;;;;;;6268861;28;20029;-75
2023/03/02 03:09:13;;;;;;;3.10;2.05;;;18.70;51.20;;;;;;6267364;28;20371;-74
2023/03/02 03:12:20;;;;;;;2.30;1.83;;;18.70;51.20;;;;;;6267699;28;20060;-75
2023/03/02 03:15:21;;;;;;;3.28;2.00;;;18.70;51.20;;;;;;6267439;28;20037;-75
2023/03/02 03:18:23;;;;;;;2.00;1.55;;;18.70;51.20;;;;;;6268756;28;20032;-75
2023/03/02 03:21:24;;;;;;;2.63;2.08;;;18.80;51.30;;;;;;6267380;28;20367;-74
2023/03/02 03:24:26;;;;;;;2.90;2.00;;;18.70;51.20;;;;;;6267005;28;20072;-74
2023/03/02 03:27:27;;;;;;;2.67;1.90;;;18.70;51.20;;;;;;6268466;28;20478;-74
2023/03/02 03:30:28;;;;;;;3.05;2.00;;;18.70;51.20;;;;;;6268500;28;20550;-75
2023/03/02 03:33:28;;;;;;;2.40;1.70;;;18.70;51.20;;;;;;6266899;28;20033;-74
2023/03/02 03:36:30;;;;;;;2.72;1.77;;;18.70;51.20;;;;;;6268519;28;20658;-75
2023/03/02 03:39:31;;;;;;;2.30;1.85;;;18.70;51.30;;;;;;6268219;28;20021;-75
2023/03/02 03:42:32;;;;;;;3.13;2.05;;;18.70;51.20;;;;;;6268264;28;20056;-75
2023/03/02 03:45:33;;;;;;;2.28;1.65;;;18.70;51.20;;;;;;6268147;28;20087;-76
2023/03/02 03:48:34;;;;;;;2.47;1.73;;;18.70;51.20;;;;;;6268095;28;20037;-75
2023/03/02 03:51:34;;;;;;;3.08;1.98;;;18.70;51.20;;;;;;6266986;28;20049;-75
2023/03/02 03:54:35;;;;;;;3.40;1.83;;;18.70;51.20;;;;;;6268010;28;20025;-75
2023/03/02 03:57:37;;;;;;;3.30;1.63;;;18.70;51.30;;;;;;6267868;28;20033;-74
2023/03/02 04:00:37;;;;;;;1.92;1.50;;;18.70;51.20;;;;;;6267801;28;20017;-74
2023/03/02 04:03:38;;;;;;;3.42;2.08;;;18.70;51.30;;;;;;6268009;28;20025;-74
2023/03/02 04:06:39;;;;;;;2.53;1.77;;;18.70;51.20;;;;;;6266753;28;20035;-74
2023/03/02 04:09:41;;;;;;;2.20;1.60;;;18.70;51.30;;;;;;6271145;28;20031;-74
2023/03/02 04:12:41;;;;;;;2.25;1.63;;;18.70;51.20;;;;;;6272878;28;20033;-75
2023/03/02 04:15:42;;;;;;;2.20;1.50;;;18.70;51.30;;;;;;6271374;28;20482;-74
2023/03/02 04:18:44;;;;;;;2.05;1.70;;;18.70;51.20;;;;;;6272579;28;20398;-74
2023/03/02 04:21:48;;;;;;;2.42;1.90;;;18.70;51.20;;;;;;6272580;28;20017;-74
2023/03/02 04:24:49;;;;;;;2.20;1.58;;;18.70;51.30;;;;;;6272458;28;20086;-75
2023/03/02 04:27:51;;;;;;;3.00;1.83;;;18.70;51.30;;;;;;6271228;28;20473;-75
2023/03/02 04:30:52;;;;;;;2.85;2.00;;;18.70;51.20;;;;;;6272340;28;20021;-75
2023/03/02 04:33:53;;;;;;;2.80;1.60;;;18.70;51.20;;;;;;6271020;28;20048;-75
2023/03/02 04:36:54;;;;;;;1.70;1.40;;;18.70;51.20;;;;;;6271237;28;20021;-74
2023/03/02 04:39:55;;;;;;;2.10;1.63;;;18.70;51.30;;;;;;6272276;28;20071;-75
2023/03/02 04:42:56;;;;;;;3.17;1.83;;;18.70;51.20;;;;;;6272457;28;20017;-75
2023/03/02 04:45:57;;;;;;;2.20;1.73;;;18.70;51.20;;;;;;6271962;28;20108;-75
2023/03/02 04:48:58;;;;;;;2.75;1.85;;;18.70;51.20;;;;;;6270636;28;20039;-75
2023/03/02 04:51:59;;;;;;;2.58;1.70;;;18.70;51.30;;;;;;6272357;28;20025;-75
2023/03/02 04:54:59;;;;;;;1.85;1.48;;;18.70;51.20;;;;;;6272108;28;20029;-75
2023/03/02 04:58:00;;;;;;;2.38;1.75;;;18.70;51.20;;;;;;6271769;28;20492;-74
2023/03/02 05:01:02;;;;;;;1.83;1.50;;;18.70;51.20;;;;;;6270745;28;20044;-76
2023/03/02 05:04:03;;;;;;;2.35;1.70;;;18.70;51.20;;;;;;6271702;28;20017;-75
2023/03/02 05:07:04;;;;;;;1.50;1.20;;;18.70;51.30;;;;;;6270443;28;20155;-74
2023/03/02 05:10:05;;;;;;;2.97;1.63;;;18.70;51.20;;;;;;6271743;28;20025;-74
2023/03/02 05:13:06;;;;;;;2.20;1.70;;;18.70;51.30;;;;;;6271356;28;20082;-74
2023/03/02 05:16:06;;;;;;;2.17;1.52;;;18.70;51.20;;;;;;6271063;28;20029;-75
2023/03/02 05:19:10;;;;;;;2.30;1.50;;;18.70;51.20;;;;;;6269362;28;20124;-75
2023/03/02 05:22:12;;;;;;;2.17;1.55;;;18.70;51.30;;;;;;6271532;28;20074;-75
2023/03/02 05:25:13;;;;;;;2.33;1.60;;;18.70;51.20;;;;;;6269924;28;20033;-74
2023/03/02 05:28:13;;;;;;;1.50;1.40;;;18.70;51.20;;;;;;6271023;28;20096;-74
2023/03/02 05:31:22;;;;;;;1.92;1.42;;;18.70;51.20;;;;;;6269679;28;20028;-74
2023/03/02 05:34:22;;;;;;;1.52;1.40;;;18.70;51.30;;;;;;6269402;28;20045;-74
2023/03/02 05:37:23;;;;;;;2.03;1.50;;;18.70;51.20;;;;;;6269601;28;20462;-74
2023/03/02 05:40:24;;;;;;;1.67;1.33;;;18.80;51.30;;;;;;6271191;28;20021;-74
2023/03/02 05:43:25;;;;;;;2.00;1.20;;;18.70;51.20;;;;;;6271234;28;20025;-74
2023/03/02 05:46:26;;;;;;;2.28;1.55;;;18.70;51.20;;;;;;6270492;28;20059;-75
2023/03/02 05:49:27;;;;;;;2.17;1.52;;;18.70;51.30;;;;;;6270547;28;20494;-74
2023/03/02 05:52:27;;;;;;;2.25;1.60;;;18.70;51.20;;;;;;6270401;28;20025;-74
2023/03/02 05:55:28;;;;;;;2.15;1.65;;;18.70;51.30;;;;;;6269436;28;20033;-75
2023/03/02 05:58:29;;;;;;;2.75;1.58;;;18.70;51.70;;;;;;6271122;28;20028;-75
2023/03/02 06:01:29;;;;;;;2.28;1.63;;;18.80;51.40;;;;;;6268685;28;20043;-75
2023/03/02 06:04:30;;;;;;;2.25;1.63;;;18.80;51.40;;;;;;6270093;28;20057;-74
2023/03/02 06:07:31;;;;;;;3.75;2.13;;;18.80;51.40;;;;;;6269165;28;20747;-74
2023/03/02 06:10:32;;;;;;;2.00;1.80;;;18.70;51.30;;;;;;6268805;28;20423;-75
2023/03/02 06:13:33;;;;;;;2.10;1.48;;;18.80;51.40;;;;;;6270296;28;20040;-74
2023/03/02 06:16:35;;;;;;;2.22;1.60;;;18.80;51.40;;;;;;6270352;28;20057;-73
2023/03/02 06:19:36;;;;;;;2.15;1.40;;;18.80;51.40;;;;;;6270082;28;20017;-74
2023/03/02 06:22:43;;;;;;;2.20;1.70;;;18.70;51.30;;;;;;6270162;28;20429;-75
2023/03/02 06:25:47;;;;;;;2.25;1.55;;;18.80;51.40;;;;;;6268371;28;20029;-74
2023/03/02 06:28:48;;;;;;;1.80;1.40;;;18.80;51.40;;;;;;6269937;28;20013;-75
2023/03/02 06:31:49;;;;;;;2.42;1.75;;;18.80;51.40;;;;;;6269569;28;20052;-75
2023/03/02 06:34:49;;;;;;;2.58;1.75;;;18.80;51.40;;;;;;6269273;28;20079;-76
2023/03/02 06:37:50;;;;;;;3.58;2.10;;;18.70;51.30;;;;;;6268469;28;20031;-75
2023/03/02 06:40:50;;;;;;;2.05;1.77;;;18.80;51.40;;;;;;6268513;28;20028;-75
2023/03/02 06:43:51;;;;;;;1.85;1.40;;;18.80;51.40;;;;;;6269479;28;20558;-74
2023/03/02 06:46:52;;;;;;;2.97;1.80;;;18.80;51.40;;;;;;6268400;28;20029;-75
2023/03/02 06:49:52;;;;;;;2.38;1.52;;;18.80;51.40;;;;;;6268049;28;20107;-74
2023/03/02 06:52:53;;;;;;;2.15;1.60;;;18.80;51.40;;;;;;6269350;28;20074;-74
2023/03/02 06:55:54;;;;;;;2.05;1.48;;;18.80;51.40;;;;;;6269280;28;20032;-71
2023/03/02 06:58:54;;;;;;;1.83;1.48;;;18.80;51.50;;;;;;6260770;28;20039;-74
2023/03/02 07:01:55;;;;;;;2.00;1.63;;;18.80;51.40;;;;;;6256862;28;20017;-74
2023/03/02 07:04:56;;;;;;;2.05;1.75;;;18.80;51.40;;;;;;6290968;28;20097;-73
2023/03/02 07:07:58;;;;;;;2.38;1.80;;;18.80;51.40;;;;;;6272343;28;20110;-74
2023/03/02 07:11:02;;;;;;;2.28;1.50;;;18.70;51.40;;;;;;6269283;28;20429;-74
2023/03/02 07:14:03;;;;;;;3.15;2.10;;;18.80;51.40;;;;;;6277187;28;20020;-73
2023/03/02 07:17:04;;;;;;;2.22;1.50;;;18.80;51.40;;;;;;6275995;28;20389;-74
2023/03/02 07:20:06;;;;;;;2.20;1.70;;;18.80;51.40;;;;;;6278745;28;20510;-73
2023/03/02 07:23:07;;;;;;;3.90;1.88;;;18.70;51.40;;;;;;6270396;28;20021;-74
2023/03/02 07:26:07;;;;;;;2.42;1.75;;;18.80;51.40;;;;;;6269692;28;20055;-74
2023/03/02 07:29:08;;;;;;;3.42;1.90;;;18.80;51.40;;;;;;6271955;28;20036;-74
2023/03/02 07:32:09;;;;;;;3.72;1.80;;;18.80;51.40;;;;;;6295320;28;20028;-74
2023/03/02 07:35:09;;;;;;;3.17;2.05;;;18.80;51.40;;;;;;6284060;28;20052;-74
2023/03/02 07:38:10;;;;;;;2.13;1.73;;;18.80;51.40;;;;;;6258936;28;20363;-74
2023/03/02 07:41:11;;;;;;;2.58;1.98;;;18.80;51.40;;;;;;6288916;28;20024;-74
2023/03/02 07:44:12;;;;;;;1.70;1.50;;;18.80;51.40;;;;;;6291180;28;20078;-74
2023/03/02 07:47:12;;;;;;;3.05;2.05;;;18.80;51.40;;;;;;6268512;28;20032;-74
2023/03/02 07:50:13;;;;;;;2.72;1.70;;;18.80;51.40;;;;;;6263055;28;20021;-74
2023/03/02 07:53:14;;;;;;;2.55;1.95;;;18.80;51.40;;;;;;6267954;28;20041;-74
2023/03/02 07:56:15;;;;;;;3.10;2.13;;;18.80;51.40;;;;;;6269963;28;20021;-73
2023/03/02 07:59:15;;;;;;;2.75;2.08;;;18.80;51.40;;;;;;6279604;28;20017;-74
2023/03/02 08:02:19;;;;;;;2.63;2.00;;;18.80;51.40;;;;;;6268948;28;20513;-73
2023/03/02 08:05:20;;;;;;;3.30;1.88;;;18.80;51.40;;;;;;6270064;28;20029;-73
2023/03/02 08:08:21;;;;;;;2.33;1.65;;;18.90;51.40;;;;;;6268701;28;20034;-72
2023/03/02 08:11:22;;;;;;;3.63;1.85;;;18.80;51.30;;;;;;6257829;28;20434;-72
2023/03/02 08:14:23;;;;;;;2.80;1.75;;;18.90;51.40;;;;;;6261419;28;20128;-73
2023/03/02 08:17:24;;;;;;;2.53;1.83;;;18.90;51.30;;;;;;6292667;28;20032;-72
2023/03/02 08:20:26;;;;;;;3.50;2.10;;;18.90;51.40;;;;;;6266956;28;20103;-72
2023/03/02 08:23:27;;;;;;;2.97;2.08;;;18.80;51.30;;;;;;6274782;28;20021;-73
2023/03/02 08:26:28;;;;;;;3.45;2.35;;;18.80;51.40;;;;;;6262629;28;20033;-72
2023/03/02 08:29:29;;;;;;;3.75;1.67;;;18.90;51.40;;;;;;6252163;28;20036;-72
2023/03/02 08:32:32;;;;;;;3.10;2.10;;;18.90;51.40;;;;;;6267586;28;20028;-73
2023/03/02 08:35:33;;;;;;;3.10;2.20;;;18.90;51.40;;;;;;6268307;28;20521;-73
2023/03/02 08:38:34;;;;;;;3.60;2.22;;;18.90;51.40;;;;;;6268973;28;20017;-73
2023/03/02 08:41:35;;;;;;;2.78;2.10;;;18.80;51.40;;;;;;6267426;28;20025;-73
2023/03/02 08:44:36;;;;;;;2.22;1.90;;;18.80;51.40;;;;;;6279484;28;20485;-73
2023/03/02 08:47:37;;;;;;;3.35;2.10;;;18.90;51.50;;;;;;6293644;28;20024;-72
2023/03/02 08:50:37;;;;;;;5.55;2.10;;;18.80;51.40;;;;;;6290751;28;20044;-72
2023/03/02 08:53:42;;;;;;;2.28;1.80;;;18.80;51.40;;;;;;6268887;28;20036;-72
2023/03/02 08:56:43;;;;;;;3.05;2.20;;;18.90;51.50;;;;;;6271740;28;20032;-72
2023/03/02 08:59:44;;;;;;;3.47;2.03;;;18.80;51.50;;;;;;6273396;28;20497;-73
2023/03/02 09:02:45;;;;;;;3.55;2.38;;;18.90;51.40;;;;;;6291823;28;20031;-72
2023/03/02 09:05:46;;;;;;;3.40;2.08;;;18.90;51.40;;;;;;6296792;28;20028;-72
2023/03/02 09:08:46;;;;;;;2.95;2.22;;;18.90;51.30;;;;;;6284457;28;20029;-73
2023/03/02 09:11:47;;;;;;;2.53;2.05;;;18.90;51.30;;;;;;6272961;28;20021;-72
2023/03/02 09:14:48;;;;;;;4.13;2.53;;;18.90;51.40;;;;;;6273133;28;20524;-74
2023/03/02 09:17:48;;;;;;;2.80;2.17;;;18.90;51.40;;;;;;6271211;28;20052;-69
2023/03/02 09:20:53;;;;;;;2.40;1.95;;;18.90;51.40;;;;;;6267203;28;20120;-68
2023/03/02 09:23:56;;;;;;;3.90;2.13;;;18.80;51.30;;;;;;6264116;28;20486;-69
2023/03/02 09:26:59;;;;;;;2.28;1.73;;;18.90;51.40;;;;;;6272382;28;20104;-69
2023/03/02 09:29:59;;;;;;;2.58;2.00;;;18.80;51.30;;;;;;6272478;28;20020;-69
2023/03/02 09:33:00;;;;;;;4.68;2.15;;;18.90;51.40;;;;;;6269914;28;20612;-69
2023/03/02 09:36:06;;;;;;;5.43;2.10;;;18.90;51.40;;;;;;6243332;28;20565;-68
2023/03/02 09:39:11;;;;;;;5.47;2.28;;;18.80;51.30;;;;;;6277415;28;20371;-69
2023/03/02 09:42:30;;;;;;;;;;;18.80;51.30;;;;;;6278212;28;20203;-69
2023/03/02 09:45:36;;;;;;;2.40;2.00;;;18.90;52.00;;;;;;6269097;28;19999;-69
2023/03/02 09:48:37;;;;;;;2.90;2.03;;;18.90;51.40;;;;;;6272122;28;20029;-69
2023/03/02 09:51:42;;;;;;;3.03;2.08;;;18.90;51.40;;;;;;6273077;28;20044;-69
2023/03/02 09:54:43;;;;;;;2.88;2.05;;;18.90;51.40;;;;;;6295527;28;20025;-69
2023/03/02 09:57:45;;;;;;;2.92;2.10;;;18.90;51.40;;;;;;6289819;28;20575;-69
2023/03/02 10:00:47;;;;;;;2.75;1.92;;;18.80;51.30;;;;;;6273687;28;20108;-69
2023/03/02 10:04:00;;;;;;;4.25;2.28;;;18.90;51.40;;;;;;6291642;28;20040;-69
2023/03/02 10:07:14;;;;;;;3.25;2.08;;;18.80;51.30;;;;;;6294448;28;20028;-69
2023/03/02 10:10:23;;;;;;;2.85;2.03;;;18.90;51.40;;;;;;6279717;28;20489;-69
2023/03/02 10:13:30;;;;;;;2.40;1.92;;;18.80;51.30;;;;;;6270175;28;20033;-69
2023/03/02 10:16:44;;;;;;;2.90;2.17;;;18.80;51.30;;;;;;6253099;28;20083;-69
2023/03/02 10:19:58;;;;;;;2.97;2.10;;;18.80;51.30;;;;;;6246852;28;20022;-69
2023/03/02 10:23:27;;;;;;;3.50;2.03;;;18.80;51.30;;;;;;6256584;28;20099;-69
2023/03/02 10:26:39;;;;;;;5.18;2.08;;;18.90;51.40;;;;;;6269808;28;20048;-69
2023/03/02 10:29:57;;;;;;;3.45;2.05;;;18.90;51.40;;;;;;6289717;28;20123;-69
2023/03/02 10:33:19;;;;;;;3.40;2.20;;;18.90;51.40;;;;;;6276496;28;20036;-69
2023/03/02 10:36:25;;;;;;;3.20;2.20;;;18.90;51.40;;;;;;6245824;28;20052;-68
2023/03/02 10:39:26;;;;;;;3.40;1.95;;;18.90;51.40;;;;;;6273494;28;20056;-69
2023/03/02 10:42:33;;;;;;;2.58;2.10;;;18.80;51.20;;;;;;6258904;28;20367;-68
2023/03/02 10:45:33;;;;;;;3.28;2.08;;;18.90;51.30;;;;;;6279046;28;20465;-69
2023/03/02 10:49:03;;;;;;;3.38;2.00;;;18.90;51.20;;;;;;6260903;28;20056;-69
2023/03/02 10:52:13;;;;;;;2.60;1.83;;;18.90;51.00;;;;;;6270221;28;20122;-69
2023/03/02 10:55:15;;;;;;;2.97;1.90;;;19.00;50.60;;;;;;6291877;28;20482;-69
2023/03/02 10:58:30;;;;;;;2.72;2.00;;;19.00;50.30;;;;;;6277978;28;20068;-69
2023/03/02 11:01:31;;;;;;;5.07;2.45;;;19.00;50.40;;;;;;6269778;28;20075;-69
2023/03/02 11:04:32;;;;;;;4.30;1.95;;;19.00;50.50;;;;;;6279596;28;20021;-68
2023/03/02 11:07:33;;;;;;;3.22;2.08;;;19.00;50.40;;;;;;6269800;28;20035;-69
2023/03/02 11:10:39;;;;;;;3.45;1.80;;;19.00;50.40;;;;;;6270248;28;20029;-69
2023/03/02 11:13:40;;;;;;;2.63;1.80;;;19.00;50.40;;;;;;6269949;28;20056;-68
2023/03/02 11:16:41;;;;;;;5.28;1.85;;;19.00;50.40;;;;;;6262862;28;20026;-69
2023/03/02 11:19:42;;;;;;;2.70;1.73;;;19.00;50.40;;;;;;6268546;28;20078;-69
2023/03/02 11:23:01;;;;;;;2.72;1.90;;;19.00;51.10;;;;;;6254350;28;20054;-68
2023/03/02 11:26:22;;;;;;;3.33;1.77;;;19.00;50.30;;;;;;6280496;28;20427;-68
2023/03/02 11:29:44;;;;;;;1092.68;155.38;;;19.10;50.70;;;;;;6269599;28;20040;-68
2023/03/02 11:32:52;;;;;;;592.22;57.22;;;19.10;51.30;;;;;;6268635;28;20033;-68
2023/03/02 11:36:03;;;;;;;198.45;21.20;;;19.10;51.20;;;;;;6282911;28;20052;-68
2023/03/02 11:39:11;;;;;;;61.30;9.10;;;19.10;50.90;;;;;;6259406;28;20103;-68
2023/03/02 11:42:22;;;;;;;47.10;7.70;;;19.10;50.70;;;;;;6269205;28;20122;-68
2023/03/02 11:45:27;;;;;;;63.22;8.10;;;19.10;50.60;;;;;;6273666;28;20021;-68
2023/03/02 11:48:41;;;;;;;47.78;7.72;;;19.10;50.40;;;;;;6262488;28;20031;-68
2023/03/02 11:51:53;;;;;;;40.23;6.60;;;19.20;50.60;;;;;;6248990;28;20521;-68
2023/03/02 11:55:03;;;;;;;35.20;6.25;;;19.10;50.50;;;;;;6269915;28;20025;-68
2023/03/02 11:58:04;;;;;;;29.52;5.45;;;19.10;50.70;;;;;;6258305;28;20029;-68
2023/03/02 12:01:12;;;;;;;27.52;6.00;;;19.10;50.60;;;;;;6268900;28;20053;-68
2023/03/02 12:04:36;;;;;;;24.48;5.72;;;19.20;50.80;;;;;;6269529;28;20043;-68
2023/03/02 12:07:37;;;;;;;15.80;5.10;;;19.10;50.60;;;;;;6290841;28;20025;-68
2023/03/02 12:10:41;;;;;;;32.72;5.35;;;19.20;50.40;;;;;;6269580;28;20024;-68
2023/03/02 12:14:02;;;;;;;22.08;5.15;;;19.20;50.30;;;;;;6268954;28;20057;-68
2023/03/02 12:17:19;;;;;;;20.75;4.38;;;19.20;50.10;;;;;;6270801;28;20104;-68
2023/03/02 12:20:23;;;;;;;12.40;3.90;;;19.30;50.70;;;;;;6266128;28;20033;-68
2023/03/02 12:23:24;;;;;;;13.57;3.95;;;19.20;50.20;;;;;;6257584;28;20029;-68
2023/03/02 12:26:42;;;;;;;13.48;3.72;;;19.30;50.70;;;;;;6268701;28;20078;-68
2023/03/02 12:29:50;;;;;;;9.63;4.05;;;19.30;50.30;;;;;;6271049;28;20500;-68
2023/03/02 12:33:09;;;;;;;11.55;4.07;;;19.30;49.90;;;;;;6273814;28;20029;-67
2023/03/02 12:36:17;;;;;;;13.55;3.38;;;19.30;50.50;;;;;;6256949;28;20124;-68
2023/03/02 12:39:48;;;;;;;11.75;4.00;;;19.30;50.60;;;;;;6265074;28;20064;-68
2023/03/02 12:43:15;;;;;;;13.38;3.30;;;19.30;50.70;;;;;;6290686;28;20393;-68
2023/03/02 12:46:35;;;;;;;12.40;3.72;;;19.30;51.20;;;;;;6279264;28;20072;-68
2023/03/02 12:49:56;;;;;;;12.32;3.35;;;19.40;50.30;;;;;;6271091;28;20118;-68
2023/03/02 12:53:05;;;;;;;16.65;3.20;;;19.40;50.60;;;;;;6279327;28;20025;-68
2023/03/02 12:56:07;;;;;;;11.35;3.08;;;19.40;50.40;;;;;;6283565;28;20029;-68
2023/03/02 12:59:26;;;;;;;18.25;3.10;;;19.40;50.50;;;;;;6297594;28;20456;-68
2023/03/02 13:02:32;;;;;;;8.45;2.95;;;19.50;50.60;;;;;;6284653;28;20024;-68
2023/03/02 13:05:35;;;;;;;12.25;3.00;;;19.40;50.70;;;;;;6273307;28;20529;-69
2023/03/02 13:08:36;;;;;;;8.32;2.88;;;19.40;50.70;;;;;;6272268;28;20029;-67
2023/03/02 13:11:37;;;;;;;7.57;2.78;;;19.40;50.90;;;;;;6272061;28;20138;-67
2023/03/02 13:14:42;;;;;;;8.27;2.70;;;19.40;50.90;;;;;;6272665;28;20031;-67
2023/03/02 13:17:44;;;;;;;;;;;19.40;50.90;;;;;;6273093;28;20025;-68
2023/03/02 13:20:45;;;;;;;12.48;2.70;;;19.40;51.00;;;;;;6272264;28;19916;-68
2023/03/02 13:23:50;;;;;;;7.43;2.55;;;19.30;51.20;;;;;;6292938;28;20027;-67
2023/03/02 13:26:54;;;;;;;;;;;19.40;50.90;;;;;;6293808;28;20025;-68
2023/03/02 13:30:06;;;;;;;8.98;3.00;;;19.40;51.00;;;;;;6272793;28;19988;-67
2023/03/02 13:33:21;;;;;;;8.25;2.55;;;19.40;51.00;;;;;;6272662;28;20540;-67
2023/03/02 13:36:28;;;;;;;5.88;2.50;;;19.40;50.90;;;;;;6282259;28;20183;-68
2023/03/02 13:39:33;;;;;;;4.75;2.10;;;19.40;50.70;;;;;;6282523;28;20037;-68
2023/03/02 13:42:38;;;;;;;6.75;2.25;;;19.50;51.60;;;;;;6277797;28;20032;-67
2023/03/02 13:45:38;;;;;;;6.28;2.13;;;19.50;50.60;;;;;;6282567;28;20090;-68
2023/03/02 13:48:39;;;;;;;6.55;2.63;;;19.50;50.90;;;;;;6288364;28;20029;-68
2023/03/02 13:51:44;;;;;;;5.90;2.55;;;19.50;50.90;;;;;;6280201;28;20048;-71
2023/03/02 13:54:46;;;;;;;4.93;2.10;;;19.40;50.90;;;;;;6266324;28;20035;-68
2023/03/02 13:57:49;;;;;;;6.20;2.28;;;19.40;50.90;;;;;;6260822;28;20115;-68
2023/03/02 14:00:51;;;;;;;5.70;2.55;;;19.40;50.90;;;;;;6277582;28;20021;-68
2023/03/02 14:03:51;;;;;;;5.75;2.25;;;19.40;50.90;;;;;;6282470;28;20060;-67
2023/03/02 14:06:53;;;;;;;8.07;2.50;;;19.40;50.80;;;;;;6270964;28;20021;-68
2023/03/02 14:09:54;;;;;;;5.07;1.98;;;19.50;50.70;;;;;;6294208;28;20042;-68
2023/03/02 14:12:58;;;;;;;7.07;2.08;;;19.50;50.70;;;;;;6275311;28;20029;-68
2023/03/02 14:15:59;;;;;;;6.72;2.17;;;19.50;50.70;;;;;;6271432;28;20119;-68
2023/03/02 14:19:00;;;;;;;4.13;1.98;;;19.50;50.30;;;;;;6266499;28;20085;-68
2023/03/02 14:22:01;;;;;;;4.57;1.95;;;19.50;50.60;;;;;;6278713;28;20100;-68
2023/03/02 14:25:01;;;;;;;6.47;2.00;;;19.50;50.60;;;;;;6262145;28;20017;-68
2023/03/02 14:28:02;;;;;;;9.00;2.00;;;19.50;50.70;;;;;;6272830;28;20021;-68
2023/03/02 14:31:03;;;;;;;5.03;2.13;;;19.50;50.80;;;;;;6284959;28;20017;-68
2023/03/02 14:34:04;;;;;;;8.07;2.15;;;19.50;50.70;;;;;;6262565;28;20037;-68
2023/03/02 14:37:17;;;;;;;7.15;2.10;;;19.50;50.70;;;;;;6258872;28;20017;-69
2023/03/02 14:40:24;;;;;;;4.35;1.95;;;19.50;50.70;;;;;;6259515;28;20053;-69
2023/03/02 14:43:25;;;;;;;5.07;2.20;;;19.60;50.60;;;;;;6268652;28;20021;-69
2023/03/02 14:46:25;;;;;;;5.70;1.77;;;19.60;50.70;;;;;;6257552;28;20033;-69
2023/03/02 14:49:26;;;;;;;2.22;1.60;;;19.60;50.70;;;;;;6268095;28;20043;-68
2023/03/02 14:52:34;;;;;;;5.68;2.20;;;19.50;50.60;;;;;;6265024;28;20117;-69
2023/03/02 14:55:36;;;;;;;3.45;1.77;;;19.50;50.60;;;;;;6268638;28;20035;-69
2023/03/02 14:58:36;;;;;;;5.10;2.00;;;19.50;50.50;;;;;;6274901;28;20021;-69
2023/03/02 15:01:38;;;;;;;4.50;2.05;;;19.50;50.60;;;;;;6287453;28;20164;-72
2023/03/02 15:04:38;;;;;;;3.30;1.75;;;19.50;50.50;;;;;;6269379;28;20029;-73
2023/03/02 15:07:40;;;;;;;2.90;1.48;;;19.50;50.50;;;;;;6268739;28;20029;-71
2023/03/02 15:10:42;;;;;;;2.85;1.50;;;19.50;50.50;;;;;;6270739;28;20036;-71
2023/03/02 15:13:42;;;;;;;3.25;1.73;;;19.50;50.40;;;;;;6267327;28;20033;-69
2023/03/02 15:16:43;;;;;;;3.42;1.80;;;19.40;49.80;;;;;;6244911;28;20079;-70
2023/03/02 15:19:44;;;;;;;4.88;2.25;;;19.40;49.40;;;;;;6257254;28;20025;-69
2023/03/02 15:22:45;;;;;;;6.38;2.03;;;19.40;48.60;;;;;;6269685;28;20029;-69
2023/03/02 15:25:46;;;;;;;2.92;1.90;;;19.40;48.40;;;;;;6274735;28;20505;-68
2023/03/02 15:28:50;;;;;;;3.05;1.80;;;19.50;48.60;;;;;;6291973;28;20389;-68
2023/03/02 15:31:51;;;;;;;5.68;1.73;;;19.50;49.20;;;;;;6252527;28;20025;-69
2023/03/02 15:34:52;;;;;;;5.85;1.90;;;19.50;48.50;;;;;;6268246;28;20052;-69
2023/03/02 15:37:53;;;;;;;2.65;1.48;;;19.60;49.30;;;;;;6267703;28;20032;-68
2023/03/02 15:40:54;;;;;;;4.70;1.60;;;19.60;49.20;;;;;;6263489;28;20049;-69
2023/03/02 15:43:55;;;;;;;2.08;1.45;;;19.60;48.90;;;;;;6269444;28;20031;-69
2023/03/02 15:46:57;;;;;;;4.40;1.73;;;19.60;48.70;;;;;;6294802;28;20078;-68
2023/03/02 15:49:58;;;;;;;4.18;1.48;;;19.60;49.20;;;;;;6286110;28;20434;-69
2023/03/02 15:52:59;;;;;;;2.92;1.48;;;19.60;49.30;;;;;;6259400;28;20029;-73
2023/03/02 15:56:05;;;;;;;2.53;1.25;;;19.60;49.40;;;;;;6273655;28;20107;-72